createdAt,value
2017-09-04T00:02:21.986Z,2.67
2017-09-04T00:04:49.374Z,2.60
2017-09-04T00:07:16.774Z,2.50
2017-09-04T00:09:44.150Z,2.43
2017-09-04T00:12:11.537Z,4.13
2017-09-04T00:14:38.922Z,3.63
2017-09-04T00:17:06.314Z,2.43
2017-09-04T00:19:33.698Z,3.10
2017-09-04T00:22:01.094Z,2.57
2017-09-04T00:24:28.485Z,2.20
2017-09-04T00:26:55.902Z,2.77
2017-09-04T00:29:23.290Z,2.43
2017-09-04T00:31:50.690Z,4.50
2017-09-04T00:34:18.074Z,2.60
2017-09-04T00:36:45.467Z,2.23
2017-09-04T00:39:12.860Z,3.23
2017-09-04T00:41:40.259Z,3.43
2017-09-04T00:44:07.685Z,2.97
2017-09-04T00:46:35.074Z,2.53
2017-09-04T00:49:02.473Z,2.63
2017-09-04T00:51:29.860Z,2.23
2017-09-04T00:53:57.246Z,2.70
2017-09-04T00:56:24.635Z,2.53
2017-09-04T00:58:52.035Z,6.47
2017-09-04T01:01:19.423Z,2.10
2017-09-04T01:03:46.814Z,2.03
2017-09-04T01:06:14.217Z,2.83
2017-09-04T01:08:41.619Z,2.93
2017-09-04T01:11:09.002Z,2.50
2017-09-04T01:13:36.394Z,3.47
2017-09-04T01:16:03.778Z,2.57
2017-09-04T01:18:31.266Z,3.03
2017-09-04T01:20:58.650Z,3.43
2017-09-04T01:23:26.037Z,2.63
2017-09-04T01:25:53.522Z,2.53
2017-09-04T01:28:20.915Z,2.60
2017-09-04T01:30:48.310Z,2.37
2017-09-04T01:33:15.701Z,3.13
2017-09-04T01:35:43.094Z,2.10
2017-09-04T01:38:10.490Z,2.57
2017-09-04T01:40:37.884Z,2.73
2017-09-04T01:43:05.273Z,3.23
2017-09-04T01:45:32.662Z,2.40
2017-09-04T01:48:00.051Z,2.20
2017-09-04T01:50:27.445Z,5.03
2017-09-04T01:52:54.834Z,3.10
2017-09-04T01:55:22.230Z,3.07
2017-09-04T01:57:49.614Z,2.57
2017-09-04T02:00:17.098Z,2.77
2017-09-04T02:02:44.482Z,2.77
2017-09-04T02:05:11.915Z,2.53
2017-09-04T02:07:39.298Z,2.70
2017-09-04T02:10:06.694Z,6.50
2017-09-04T02:12:34.092Z,2.87
2017-09-04T02:15:01.490Z,2.90
2017-09-04T02:17:28.875Z,2.33
2017-09-04T02:19:56.266Z,2.50
2017-09-04T02:22:23.655Z,4.70
2017-09-04T02:24:51.049Z,2.47
2017-09-04T02:27:18.438Z,2.47
2017-09-04T02:29:45.892Z,2.63
2017-09-04T02:32:13.254Z,5.07
2017-09-04T02:34:40.648Z,3.60
2017-09-04T02:37:08.126Z,2.97
2017-09-04T02:39:35.518Z,3.40
2017-09-04T02:42:02.910Z,2.97
2017-09-04T02:44:30.300Z,2.47
2017-09-04T02:46:57.779Z,3.47
2017-09-04T02:49:25.163Z,2.83
2017-09-04T02:51:52.567Z,6.23
2017-09-04T02:54:20.040Z,2.40
2017-09-04T02:56:47.430Z,2.53
2017-09-04T02:59:14.830Z,2.70
2017-09-04T03:01:42.294Z,2.53
2017-09-04T03:04:09.742Z,2.33
2017-09-04T03:06:37.194Z,3.03
2017-09-04T03:09:04.587Z,2.80
2017-09-04T03:11:31.972Z,2.40
2017-09-04T03:14:01.279Z,2.40
2017-09-04T03:16:28.666Z,2.30
2017-09-04T03:18:56.057Z,2.87
2017-09-04T03:21:23.442Z,2.77
2017-09-04T03:23:50.842Z,2.67
2017-09-04T03:26:18.226Z,2.33
2017-09-04T03:28:45.614Z,3.27
2017-09-04T03:31:12.998Z,2.57
2017-09-04T03:33:40.386Z,2.50
2017-09-04T03:36:07.776Z,2.47
2017-09-04T03:38:35.219Z,3.13
2017-09-04T03:41:02.618Z,2.27
2017-09-04T03:43:30.010Z,2.80
2017-09-04T03:45:57.400Z,2.80
2017-09-04T03:48:24.797Z,2.27
2017-09-04T03:50:52.179Z,2.87
2017-09-04T03:53:19.580Z,5.13
2017-09-04T03:55:46.969Z,3.77
2017-09-04T03:58:14.351Z,4.53
2017-09-04T04:00:41.738Z,3.47
2017-09-04T04:03:09.126Z,7.80
2017-09-04T04:05:36.519Z,3.00
2017-09-04T04:08:03.902Z,3.20
2017-09-04T04:10:31.375Z,6.23
2017-09-04T04:12:58.762Z,3.67
2017-09-04T04:15:26.160Z,3.60
2017-09-04T04:17:53.538Z,4.40
2017-09-04T04:20:20.929Z,3.77
2017-09-04T04:22:48.327Z,2.27
2017-09-04T04:25:15.713Z,4.93
2017-09-04T04:27:43.102Z,2.60
2017-09-04T04:30:10.500Z,3.10
2017-09-04T04:32:37.918Z,2.33
2017-09-04T04:35:05.318Z,3.00
2017-09-04T04:37:32.710Z,3.60
2017-09-04T04:40:00.143Z,3.03
2017-09-04T04:42:27.526Z,2.67
2017-09-04T04:44:54.923Z,3.17
2017-09-04T04:47:22.323Z,2.40
2017-09-04T04:49:49.776Z,2.60
2017-09-04T04:52:17.232Z,3.37
2017-09-04T04:54:44.623Z,2.70
2017-09-04T04:57:12.014Z,2.37
2017-09-04T04:59:39.503Z,6.30
2017-09-04T05:02:06.921Z,2.50
2017-09-04T05:04:34.310Z,4.07
2017-09-04T05:07:01.699Z,3.40
2017-09-04T05:09:29.086Z,1.93
2017-09-04T05:11:56.475Z,2.57
2017-09-04T05:14:23.870Z,3.47
2017-09-04T05:16:51.282Z,6.90
2017-09-04T05:19:18.667Z,2.00
2017-09-04T05:21:46.090Z,2.90
2017-09-04T05:24:13.482Z,2.13
2017-09-04T05:26:40.884Z,2.30
2017-09-04T05:29:08.285Z,6.10
2017-09-04T05:31:35.657Z,2.90
2017-09-04T05:34:03.044Z,2.40
2017-09-04T05:36:30.426Z,2.73
2017-09-04T05:38:57.818Z,8.87
2017-09-04T05:41:25.207Z,1.87
2017-09-04T05:43:52.692Z,1.67
2017-09-04T05:46:20.141Z,1.70
2017-09-04T05:48:47.534Z,1.20
2017-09-04T05:53:48.810Z,1.90
2017-09-04T05:56:16.194Z,1.60
2017-09-04T05:58:43.686Z,2.13
2017-09-04T06:01:11.071Z,1.77
2017-09-04T06:03:38.462Z,3.87
2017-09-04T06:06:05.846Z,6.07
2017-09-04T06:08:33.243Z,3.63
2017-09-04T06:11:00.630Z,1.77
2017-09-04T06:13:28.110Z,3.63
2017-09-04T06:15:55.499Z,2.20
2017-09-04T06:18:22.911Z,2.10
2017-09-04T06:20:50.300Z,2.97
2017-09-04T06:23:17.735Z,3.07
2017-09-04T06:25:45.123Z,1.80
2017-09-04T06:28:12.511Z,1.90
2017-09-04T06:30:40.004Z,2.73
2017-09-04T06:33:07.386Z,3.97
2017-09-04T06:35:34.848Z,2.60
2017-09-04T06:38:02.223Z,2.60
2017-09-04T06:40:29.726Z,2.63
2017-09-04T06:42:57.110Z,3.37
2017-09-04T06:45:24.502Z,3.07
2017-09-04T06:47:51.905Z,2.60
2017-09-04T06:50:19.298Z,2.30
2017-09-04T06:52:46.686Z,2.80
2017-09-04T06:55:14.074Z,2.50
2017-09-04T06:57:41.461Z,3.20
2017-09-04T07:00:08.867Z,2.97
2017-09-04T07:02:36.256Z,3.43
2017-09-04T07:05:03.652Z,3.13
2017-09-04T07:07:31.033Z,3.27
2017-09-04T07:09:58.427Z,9.53
2017-09-04T07:12:25.841Z,5.83
2017-09-04T07:14:53.234Z,6.30
2017-09-04T07:17:20.659Z,4.27
2017-09-04T07:19:48.054Z,2.53
2017-09-04T07:22:15.458Z,3.80
2017-09-04T07:24:42.866Z,2.10
2017-09-04T07:27:10.277Z,2.60
2017-09-04T07:29:37.674Z,3.00
2017-09-04T07:32:05.081Z,2.70
2017-09-04T07:34:32.563Z,2.90
2017-09-04T07:36:59.947Z,3.07
2017-09-04T07:39:27.366Z,2.70
2017-09-04T07:41:54.747Z,3.10
2017-09-04T07:44:22.162Z,2.80
2017-09-04T07:46:49.564Z,2.33
2017-09-04T07:49:16.985Z,2.90
2017-09-04T07:51:44.380Z,2.77
2017-09-04T07:54:11.758Z,4.30
2017-09-04T07:56:39.219Z,3.27
2017-09-04T07:59:06.620Z,3.77
2017-09-04T08:01:34.011Z,3.47
2017-09-04T08:04:01.409Z,3.67
2017-09-04T08:06:28.874Z,6.47
2017-09-04T08:08:56.262Z,3.77
2017-09-04T08:11:23.685Z,4.20
2017-09-04T08:13:51.142Z,3.80
2017-09-04T08:16:18.602Z,4.13
2017-09-04T08:18:47.948Z,4.60
2017-09-04T08:21:15.337Z,4.10
2017-09-04T08:23:42.814Z,6.33
2017-09-04T08:26:10.266Z,3.73
2017-09-04T08:28:37.706Z,3.70
2017-09-04T08:31:05.182Z,3.40
2017-09-04T08:33:32.566Z,3.97
2017-09-04T08:36:00.002Z,4.40
2017-09-04T08:38:27.392Z,3.97
2017-09-04T08:40:54.814Z,5.00
2017-09-04T08:43:22.271Z,4.37
2017-09-04T08:45:49.662Z,3.37
2017-09-04T08:48:17.083Z,4.17
2017-09-04T08:50:44.474Z,4.67
2017-09-04T08:53:11.861Z,6.27
2017-09-04T08:55:39.366Z,4.10
2017-09-04T08:58:06.732Z,3.70
2017-09-04T09:00:34.126Z,4.30
2017-09-04T09:03:01.510Z,4.00
2017-09-04T09:05:28.910Z,3.63
2017-09-04T09:07:56.370Z,6.00
2017-09-04T09:10:23.762Z,5.20
2017-09-04T09:12:51.146Z,5.13
2017-09-04T09:15:18.534Z,3.93
2017-09-04T09:17:45.925Z,4.50
2017-09-04T09:20:13.323Z,4.93
2017-09-04T09:22:41.609Z,6.27
2017-09-04T09:25:09.006Z,6.73
2017-09-04T09:27:36.394Z,5.80
2017-09-04T09:30:03.838Z,5.77
2017-09-04T09:32:31.224Z,5.60
2017-09-04T09:34:58.675Z,5.50
2017-09-04T09:37:26.058Z,5.73
2017-09-04T09:39:53.455Z,7.67
2017-09-04T09:42:20.847Z,7.03
2017-09-04T09:44:48.329Z,7.37
2017-09-04T09:47:15.801Z,6.17
2017-09-04T09:49:43.183Z,9.37
2017-09-04T09:52:10.582Z,8.07
2017-09-04T09:54:37.971Z,6.43
2017-09-04T09:57:05.359Z,7.40
2017-09-04T09:59:32.745Z,6.07
2017-09-04T10:02:00.135Z,6.13
2017-09-04T10:04:27.518Z,6.13
2017-09-04T10:06:54.915Z,6.07
2017-09-04T10:09:22.302Z,9.00
2017-09-04T10:11:49.691Z,7.70
2017-09-04T10:14:17.083Z,6.97
2017-09-04T10:16:44.470Z,6.40
2017-09-04T10:19:11.854Z,6.00
2017-09-04T10:21:39.246Z,6.07
2017-09-04T10:24:06.636Z,4.80
2017-09-04T10:26:34.022Z,6.90
2017-09-04T10:29:01.414Z,8.67
2017-09-04T10:31:28.818Z,6.70
2017-09-04T10:33:56.201Z,6.90
2017-09-04T10:36:23.595Z,9.80
2017-09-04T10:38:50.983Z,6.20
2017-09-04T10:41:18.366Z,7.10
2017-09-04T10:43:45.754Z,7.77
2017-09-04T10:46:13.154Z,6.23
2017-09-04T10:48:40.543Z,4.47
2017-09-04T10:51:07.950Z,4.23
2017-09-04T10:53:35.326Z,3.93
2017-09-04T10:56:02.714Z,7.70
2017-09-04T10:58:30.110Z,7.90
2017-09-04T11:00:57.502Z,5.40
2017-09-04T11:03:24.894Z,4.37
2017-09-04T11:05:52.278Z,4.00
2017-09-04T11:08:19.669Z,4.13
2017-09-04T11:10:47.063Z,5.73
2017-09-04T11:13:14.454Z,4.30
2017-09-04T11:15:41.834Z,3.97
2017-09-04T11:18:09.233Z,9.10
2017-09-04T11:20:36.621Z,4.63
2017-09-04T11:23:04.022Z,4.40
2017-09-04T11:25:31.399Z,4.33
2017-09-04T11:27:58.801Z,4.30
2017-09-04T11:30:26.190Z,4.73
2017-09-04T11:32:53.578Z,3.47
2017-09-04T11:35:20.970Z,6.40
2017-09-04T11:37:48.354Z,3.50
2017-09-04T11:40:15.738Z,4.63
2017-09-04T11:42:43.136Z,2.67
2017-09-04T11:45:10.523Z,3.93
2017-09-04T11:47:37.926Z,2.80
2017-09-04T11:50:05.318Z,3.93
2017-09-04T11:52:32.707Z,3.97
2017-09-04T11:55:00.106Z,5.30
2017-09-04T11:57:27.490Z,5.43
2017-09-04T11:59:54.919Z,3.70
2017-09-04T12:02:22.297Z,4.07
2017-09-04T12:04:49.695Z,3.77
2017-09-04T12:07:17.086Z,3.63
2017-09-04T12:09:44.476Z,3.67
2017-09-04T12:12:11.858Z,3.37
2017-09-04T12:14:39.255Z,4.73
2017-09-04T12:17:06.652Z,3.73
2017-09-04T12:19:34.042Z,3.17
2017-09-04T12:22:03.411Z,5.40
2017-09-04T12:24:30.806Z,2.63
2017-09-04T12:26:58.194Z,7.53
2017-09-04T12:29:25.598Z,2.80
2017-09-04T12:31:52.988Z,3.40
2017-09-04T12:34:20.375Z,3.83
2017-09-04T12:36:47.771Z,3.77
2017-09-04T12:39:15.159Z,2.90
2017-09-04T12:41:42.555Z,4.70
2017-09-04T12:44:09.968Z,4.07
2017-09-04T12:46:37.359Z,4.63
2017-09-04T12:49:04.746Z,3.73
2017-09-04T12:51:32.134Z,4.30
2017-09-04T12:53:59.527Z,4.87
2017-09-04T12:56:26.919Z,5.50
2017-09-04T12:58:54.436Z,5.93
2017-09-04T13:01:21.831Z,5.23
2017-09-04T13:03:49.328Z,5.03
2017-09-04T13:06:16.714Z,5.13
2017-09-04T13:08:44.102Z,4.67
2017-09-04T13:11:28.183Z,4.77
2017-09-04T13:14:01.128Z,4.40
2017-09-04T13:16:34.247Z,5.63
2017-09-04T13:22:17.280Z,5.20
2017-09-04T13:27:58.247Z,6.77
2017-09-04T13:30:31.382Z,6.50
2017-09-04T13:32:59.679Z,7.87
2017-09-04T13:35:32.592Z,4.80
2017-09-04T13:38:05.623Z,5.33
2017-09-04T13:40:38.584Z,16.40
2017-09-04T13:46:15.854Z,6.50
2017-09-04T13:48:48.926Z,6.37
2017-09-04T13:54:33.114Z,6.07
2017-09-04T13:57:05.415Z,5.33
2017-09-04T13:59:38.365Z,5.00
2017-09-04T14:05:22.578Z,6.60
2017-09-04T14:07:55.520Z,6.13
2017-09-04T14:13:33.408Z,6.37
2017-09-04T14:16:20.530Z,7.10
2017-09-04T14:18:48.003Z,5.20
2017-09-04T14:21:15.398Z,6.60
2017-09-04T14:23:42.781Z,6.60
2017-09-04T14:26:10.171Z,6.83
2017-09-04T14:28:37.558Z,5.17
2017-09-04T14:31:04.950Z,5.77
2017-09-04T14:33:32.337Z,5.87
2017-09-04T14:35:59.735Z,5.77
2017-09-04T14:38:27.119Z,8.23
2017-09-04T14:40:55.407Z,7.67
2017-09-04T14:43:40.617Z,7.80
2017-09-04T14:46:13.567Z,6.30
2017-09-04T14:48:40.959Z,10.53
2017-09-04T14:51:08.345Z,7.03
2017-09-04T14:53:35.727Z,6.47
2017-09-04T14:56:03.111Z,6.23
2017-09-04T14:58:30.506Z,7.17
2017-09-04T15:00:57.895Z,6.23
2017-09-04T15:03:25.294Z,7.60
2017-09-04T15:05:52.682Z,7.23
2017-09-04T15:08:20.074Z,5.33
2017-09-04T15:10:47.467Z,7.00
2017-09-04T15:13:14.851Z,4.93
2017-09-04T15:15:42.233Z,9.30
2017-09-04T15:18:09.634Z,8.07
2017-09-04T15:20:37.020Z,8.07
2017-09-04T15:23:06.318Z,14.00
2017-09-04T15:25:33.711Z,6.27
2017-09-04T15:28:01.098Z,7.90
2017-09-04T15:30:28.494Z,9.90
2017-09-04T15:32:55.887Z,9.33
2017-09-04T15:35:23.286Z,8.87
2017-09-04T15:37:50.674Z,7.07
2017-09-04T15:40:18.067Z,7.33
2017-09-04T15:42:45.460Z,6.07
2017-09-04T15:45:12.855Z,7.50
2017-09-04T15:47:40.260Z,5.43
2017-09-04T15:50:07.638Z,7.23
2017-09-04T15:52:35.023Z,5.77
2017-09-04T15:55:02.415Z,5.23
2017-09-04T15:57:29.798Z,11.10
2017-09-04T15:59:57.178Z,6.83
2017-09-04T16:02:24.571Z,5.53
2017-09-04T16:04:51.954Z,7.70
2017-09-04T16:07:22.774Z,5.40
2017-09-04T16:09:50.167Z,5.80
2017-09-04T16:12:18.907Z,5.33
2017-09-04T16:14:48.786Z,7.30
2017-09-04T16:20:32.998Z,5.63
2017-09-04T16:23:01.350Z,7.33
2017-09-04T16:25:32.217Z,6.73
2017-09-04T16:28:03.587Z,6.33
2017-09-04T16:30:30.974Z,5.37
2017-09-04T16:35:59.798Z,9.93
2017-09-04T16:38:28.539Z,4.17
2017-09-04T16:41:07.651Z,4.40
2017-09-04T16:43:44.939Z,5.57
2017-09-04T16:46:16.806Z,5.07
2017-09-04T16:48:44.734Z,4.67
2017-09-04T16:54:35.862Z,3.87
2017-09-04T16:57:06.598Z,3.10
2017-09-04T16:59:33.994Z,3.50
2017-09-04T17:02:01.383Z,4.07
2017-09-04T17:04:28.771Z,5.73
2017-09-04T17:06:56.158Z,3.20
2017-09-04T17:09:23.551Z,4.20
2017-09-04T17:11:52.868Z,3.90
2017-09-04T17:14:20.255Z,3.13
2017-09-04T17:16:49.550Z,3.33
2017-09-04T17:22:27.790Z,9.43
2017-09-04T17:25:05.086Z,4.00
2017-09-04T17:27:32.590Z,4.00
2017-09-04T17:29:59.982Z,3.43
2017-09-04T17:32:27.371Z,4.87
2017-09-04T17:34:54.761Z,6.13
2017-09-04T17:37:22.144Z,4.60
2017-09-04T17:39:49.532Z,5.57
2017-09-04T17:42:16.910Z,3.40
2017-09-04T17:44:44.307Z,6.30
2017-09-04T17:47:11.709Z,6.00
2017-09-04T17:49:39.115Z,6.07
2017-09-04T17:52:06.506Z,3.30
2017-09-04T17:54:33.886Z,3.73
2017-09-04T17:57:01.283Z,4.10
2017-09-04T17:59:28.695Z,8.00
2017-09-04T18:01:56.092Z,3.87
2017-09-04T18:04:23.481Z,4.10
2017-09-04T18:06:50.867Z,6.03
2017-09-04T18:09:18.246Z,5.70
2017-09-04T18:11:45.643Z,6.43
2017-09-04T18:14:13.062Z,6.30
2017-09-04T18:16:40.489Z,9.33
2017-09-04T18:19:07.895Z,4.40
2017-09-04T18:21:35.283Z,3.57
2017-09-04T18:24:02.681Z,4.60
2017-09-04T18:26:30.087Z,3.50
2017-09-04T18:28:57.470Z,4.50
2017-09-04T18:31:24.899Z,4.10
2017-09-04T18:33:52.269Z,4.73
2017-09-04T18:36:19.658Z,4.03
2017-09-04T18:38:47.068Z,5.97
2017-09-04T18:41:14.797Z,5.53
2017-09-04T18:43:42.198Z,6.50
2017-09-04T18:46:09.590Z,10.37
2017-09-04T18:48:37.109Z,13.33
2017-09-04T18:51:04.497Z,5.83
2017-09-04T18:53:31.880Z,8.80
2017-09-04T18:55:59.270Z,11.50
2017-09-04T18:58:26.659Z,9.27
2017-09-04T19:00:54.062Z,11.40
2017-09-04T19:03:21.467Z,6.73
2017-09-04T19:05:48.858Z,6.57
2017-09-04T19:08:16.250Z,5.70
2017-09-04T19:10:43.655Z,6.50
2017-09-04T19:13:11.039Z,4.83
2017-09-04T19:15:38.435Z,11.37
2017-09-04T19:18:23.678Z,5.33
2017-09-04T19:20:51.076Z,7.63
2017-09-04T19:23:18.461Z,4.53
2017-09-04T19:25:45.858Z,6.30
2017-09-04T19:28:13.246Z,7.60
2017-09-04T19:30:40.669Z,5.90
2017-09-04T19:33:08.058Z,4.10
2017-09-04T19:35:35.887Z,8.57
2017-09-04T19:38:03.311Z,10.70
2017-09-04T19:40:30.718Z,6.70
2017-09-04T19:42:58.128Z,5.40
2017-09-04T19:45:25.556Z,5.87
2017-09-04T19:47:52.955Z,12.97
2017-09-04T19:50:20.355Z,7.93
2017-09-04T19:52:47.773Z,5.90
2017-09-04T19:55:15.179Z,6.23
2017-09-04T19:57:42.567Z,5.93
2017-09-04T20:00:09.955Z,6.40
2017-09-04T20:02:37.355Z,6.60
2017-09-04T20:05:04.779Z,6.10
2017-09-04T20:07:32.170Z,5.10
2017-09-04T20:09:59.555Z,5.90
2017-09-04T20:12:26.946Z,6.17
2017-09-04T20:14:54.334Z,5.60
2017-09-04T20:17:21.728Z,4.77
2017-09-04T20:19:49.106Z,5.17
2017-09-04T20:22:16.504Z,5.07
2017-09-04T20:24:43.894Z,4.63
2017-09-04T20:27:11.286Z,4.90
2017-09-04T20:29:38.723Z,6.70
2017-09-04T20:32:06.119Z,8.80
2017-09-04T20:34:33.502Z,5.70
2017-09-04T20:37:00.910Z,8.60
2017-09-04T20:39:28.307Z,6.37
2017-09-04T20:41:55.707Z,11.20
2017-09-04T20:44:23.092Z,9.13
2017-09-04T20:46:50.574Z,5.53
2017-09-04T20:49:17.971Z,6.50
2017-09-04T20:51:45.362Z,5.93
2017-09-04T20:54:12.841Z,7.13
2017-09-04T20:56:40.228Z,5.80
2017-09-04T20:59:07.622Z,7.07
2017-09-04T21:01:35.106Z,7.00
2017-09-04T21:04:02.507Z,6.63
2017-09-04T21:06:29.908Z,6.23
2017-09-04T21:08:57.296Z,6.73
2017-09-04T21:11:24.733Z,10.20
2017-09-04T21:13:52.122Z,6.37
2017-09-04T21:16:19.569Z,7.07
2017-09-04T21:18:46.950Z,7.80
2017-09-04T21:21:14.335Z,6.67
2017-09-04T21:23:42.710Z,9.40
2017-09-04T21:26:10.096Z,13.23
2017-09-04T21:28:37.488Z,13.00
2017-09-04T21:31:04.871Z,8.60
2017-09-04T21:33:32.263Z,8.43
2017-09-04T21:35:59.674Z,7.70
2017-09-04T21:38:27.190Z,8.30
2017-09-04T21:40:54.592Z,8.70
2017-09-04T21:43:21.978Z,6.90
2017-09-04T21:45:49.434Z,7.67
2017-09-04T21:48:16.905Z,7.37
2017-09-04T21:50:44.291Z,7.37
2017-09-04T21:53:11.712Z,7.33
2017-09-04T21:55:39.165Z,7.53
2017-09-04T21:58:06.558Z,7.60
2017-09-04T22:00:33.961Z,6.10
2017-09-04T22:03:01.430Z,9.10
2017-09-04T22:05:28.883Z,9.30
2017-09-04T22:07:56.271Z,8.60
2017-09-04T22:10:23.664Z,8.60
2017-09-04T22:12:51.046Z,7.67
2017-09-04T22:15:18.438Z,11.27
2017-09-04T22:17:45.826Z,10.43
2017-09-04T22:20:13.235Z,9.40
2017-09-04T22:22:40.621Z,8.20
2017-09-04T22:25:08.014Z,7.97
2017-09-04T22:27:35.403Z,8.60
2017-09-04T22:30:02.791Z,9.27
2017-09-04T22:32:30.184Z,9.30
2017-09-04T22:34:57.566Z,8.70
2017-09-04T22:37:24.956Z,7.53
2017-09-04T22:39:52.343Z,8.63
2017-09-04T22:42:19.818Z,8.27
2017-09-04T22:44:47.198Z,9.73
2017-09-04T22:47:14.607Z,8.87
2017-09-04T22:49:41.991Z,8.10
2017-09-04T22:52:09.390Z,8.47
2017-09-04T22:54:36.781Z,9.10
2017-09-04T22:57:04.169Z,8.93
2017-09-04T22:59:31.558Z,9.83
2017-09-04T23:01:58.950Z,9.20
2017-09-04T23:04:26.338Z,8.87
2017-09-04T23:06:53.738Z,10.23
2017-09-04T23:09:21.125Z,9.20
2017-09-04T23:11:48.515Z,10.10
2017-09-04T23:14:15.939Z,8.30
2017-09-04T23:16:43.336Z,9.73
2017-09-04T23:19:10.718Z,7.93
2017-09-04T23:21:38.198Z,8.53
2017-09-04T23:24:05.590Z,7.40
2017-09-04T23:26:33.018Z,7.50
2017-09-04T23:29:00.405Z,7.37
2017-09-04T23:31:27.791Z,8.33
2017-09-04T23:33:55.177Z,8.80
2017-09-04T23:36:22.566Z,8.50
2017-09-04T23:38:49.959Z,8.70
2017-09-04T23:41:17.354Z,8.43
2017-09-04T23:43:44.741Z,7.67
2017-09-04T23:46:12.139Z,15.03
2017-09-04T23:48:39.543Z,17.10
2017-09-04T23:51:06.918Z,9.50
2017-09-04T23:53:34.323Z,10.67
2017-09-04T23:56:01.715Z,10.47
2017-09-04T23:58:29.131Z,9.47
